Time;durP1;ratioP1;P1;durP2;ratioP2;P2;SDS_P1;SDS_P2;PMS_P1;PMS_P2;Temp;Humidity;BMP_temperature;BMP_pressure;BME280_temperature;BME280_humidity;BME280_pressure;Samples;Min_cycle;Max_cycle;Signal;HPM_P1;HPM_P2
2023/04/27 00:00:39;;;;;;;20.92;14.10;;;;;;;;;;6122763;23;20021;-74
2023/04/27 00:03:06;;;;;;;23.83;14.93;;;;;;;;;;6122525;23;20014;-75
2023/04/27 00:05:35;;;;;;;20.38;14.02;;;;;;;;;;6097378;23;20371;-75
2023/04/27 00:08:02;;;;;;;18.27;13.15;;;;;;;;;;6127272;23;20026;-75
2023/04/27 00:10:28;;;;;;;26.98;14.93;;;;;;;;;;6124988;23;20010;-75
2023/04/27 00:12:54;;;;;;;20.95;12.75;;;;;;;;;;6124517;23;20371;-74
2023/04/27 00:15:19;;;;;;;19.33;12.75;;;;;;;;;;6099032;23;20014;-73
2023/04/27 00:17:45;;;;;;;25.02;14.52;;;;;;;;;;6098845;23;20018;-75
2023/04/27 00:20:11;;;;;;;22.25;15.13;;;;;;;;;;6074703;23;20080;-75
2023/04/27 00:22:38;;;;;;;19.48;15.38;;;;;;;;;;6098896;23;20025;-75
2023/04/27 00:25:05;;;;;;;21.70;14.73;;;;;;;;;;6101576;23;20013;-76
2023/04/27 00:27:31;;;;;;;23.08;13.45;;;;;;;;;;6125416;23;20155;-75
2023/04/27 00:29:57;;;;;;;18.00;12.90;;;;;;;;;;6125965;23;20048;-76
2023/04/27 00:32:23;;;;;;;18.90;14.93;;;;;;;;;;6076151;23;20021;-76
2023/04/27 00:34:49;;;;;;;23.58;14.20;;;;;;;;;;6126432;23;20025;-76
2023/04/27 00:37:16;;;;;;;16.95;13.43;;;;;;;;;;6131064;23;20033;-76
2023/04/27 00:39:42;;;;;;;23.13;14.13;;;;;;;;;;6146129;23;20009;-76
2023/04/27 00:42:12;;;;;;;17.48;14.18;;;;;;;;;;6119707;23;20021;-75
2023/04/27 00:44:38;;;;;;;19.58;13.18;;;;;;;;;;6128137;23;20013;-76
2023/04/27 00:47:04;;;;;;;20.55;13.80;;;;;;;;;;6098531;23;20481;-75
2023/04/27 00:49:30;;;;;;;26.13;15.32;;;;;;;;;;6074602;23;20032;-75
2023/04/27 00:51:56;;;;;;;20.13;13.60;;;;;;;;;;6074547;23;20016;-76
2023/04/27 00:54:22;;;;;;;17.45;12.82;;;;;;;;;;6074767;23;20522;-75
2023/04/27 00:56:48;;;;;;;21.70;14.73;;;;;;;;;;6074985;23;20362;-76
2023/04/27 00:59:14;;;;;;;22.60;14.90;;;;;;;;;;6073859;23;20042;-77
2023/04/27 01:01:41;;;;;;;16.73;14.80;;;;;;;;;;6098504;23;20025;-75
2023/04/27 01:04:07;;;;;;;21.77;13.25;;;;;;;;;;6074314;23;20017;-75
2023/04/27 01:06:33;;;;;;;15.82;14.00;;;;;;;;;;6124357;23;20018;-75
2023/04/27 01:08:59;;;;;;;19.33;13.75;;;;;;;;;;6124716;23;20030;-74
2023/04/27 01:11:27;;;;;;;16.80;13.60;;;;;;;;;;6075231;23;20010;-75
2023/04/27 01:13:53;;;;;;;20.58;13.48;;;;;;;;;;6098474;23;20076;-75
2023/04/27 01:16:19;;;;;;;16.05;12.88;;;;;;;;;;6097665;23;20455;-75
2023/04/27 01:18:45;;;;;;;19.23;13.43;;;;;;;;;;6098281;23;20072;-76
2023/04/27 01:21:11;;;;;;;19.90;13.57;;;;;;;;;;6050223;23;20104;-76
2023/04/27 01:23:37;;;;;;;14.30;12.90;;;;;;;;;;6124247;23;20014;-75
2023/04/27 01:26:04;;;;;;;21.42;13.45;;;;;;;;;;6123783;23;20010;-75
2023/04/27 01:28:30;;;;;;;18.77;13.90;;;;;;;;;;6073804;23;20457;-75
2023/04/27 01:30:58;;;;;;;20.88;13.70;;;;;;;;;;6097796;23;20341;-76
2023/04/27 01:33:24;;;;;;;22.35;14.65;;;;;;;;;;6124048;23;20044;-76
2023/04/27 01:35:50;;;;;;;17.35;13.10;;;;;;;;;;6098252;23;20094;-77
2023/04/27 01:38:16;;;;;;;20.33;14.00;;;;;;;;;;6123943;23;20060;-76
2023/04/27 01:40:43;;;;;;;18.70;13.35;;;;;;;;;;6098484;23;20021;-75
2023/04/27 01:43:09;;;;;;;20.88;12.73;;;;;;;;;;6098033;23;20490;-76
2023/04/27 01:45:35;;;;;;;16.90;12.65;;;;;;;;;;6050718;23;20412;-77
2023/04/27 01:48:02;;;;;;;19.58;12.98;;;;;;;;;;6051098;23;20383;-76
2023/04/27 01:50:28;;;;;;;18.25;13.77;;;;;;;;;;6081792;23;20038;-77
2023/04/27 01:52:54;;;;;;;21.35;15.80;;;;;;;;;;6145898;23;20093;-79
2023/04/27 01:55:20;;;;;;;20.75;17.75;;;;;;;;;;6119411;23;20065;-76
2023/04/27 01:57:47;;;;;;;28.85;18.17;;;;;;;;;;6106818;23;20024;-73
2023/04/27 02:00:12;;;;;;;26.75;17.83;;;;;;;;;;6137010;23;20010;-75
2023/04/27 02:02:52;;;;;;;38.78;24.20;;;;;;;;;;6119538;23;20073;-77
2023/04/27 02:05:19;;;;;;;20.77;14.27;;;;;;;;;;6108598;23;20088;-75
2023/04/27 02:07:46;;;;;;;19.55;15.48;;;;;;;;;;6100290;23;20484;-75
2023/04/27 02:10:12;;;;;;;27.20;14.98;;;;;;;;;;6076007;23;20013;-75
2023/04/27 02:12:37;;;;;;;26.60;18.88;;;;;;;;;;6075848;23;20018;-74
2023/04/27 02:15:04;;;;;;;40.97;20.98;;;;;;;;;;6051224;23;20010;-74
2023/04/27 02:17:36;;;;;;;32.33;18.13;;;;;;;;;;6100900;23;20029;-75
2023/04/27 02:20:04;;;;;;;29.83;15.43;;;;;;;;;;6101094;23;20021;-75
2023/04/27 02:22:30;;;;;;;31.48;18.52;;;;;;;;;;6129873;23;20014;-74
2023/04/27 02:24:56;;;;;;;34.58;18.75;;;;;;;;;;6104854;23;20104;-75
2023/04/27 02:27:21;;;;;;;30.98;20.30;;;;;;;;;;6131381;23;20014;-75
2023/04/27 02:29:47;;;;;;;19.40;14.55;;;;;;;;;;6103815;23;20025;-76
2023/04/27 02:32:13;;;;;;;27.67;17.65;;;;;;;;;;6100758;23;20014;-73
2023/04/27 02:34:40;;;;;;;18.92;14.77;;;;;;;;;;6101045;23;20064;-74
2023/04/27 02:37:06;;;;;;;23.60;17.77;;;;;;;;;;6073869;23;20010;-76
2023/04/27 02:39:32;;;;;;;40.08;25.20;;;;;;;;;;6098409;23;20489;-77
2023/04/27 02:41:58;;;;;;;27.33;19.08;;;;;;;;;;6126798;23;20045;-76
2023/04/27 02:44:25;;;;;;;30.30;19.85;;;;;;;;;;6097907;23;20340;-76
2023/04/27 02:46:52;;;;;;;24.60;17.67;;;;;;;;;;6074432;23;20017;-77
2023/04/27 02:49:18;;;;;;;21.35;14.05;;;;;;;;;;6123215;23;20035;-75
2023/04/27 02:51:44;;;;;;;19.20;13.95;;;;;;;;;;6099052;23;20104;-76
2023/04/27 02:54:10;;;;;;;23.45;15.35;;;;;;;;;;6097314;23;20040;-77
2023/04/27 02:56:36;;;;;;;27.25;20.08;;;;;;;;;;6097627;23;20049;-75
2023/04/27 02:59:01;;;;;;;29.70;19.45;;;;;;;;;;6123842;23;20022;-76
2023/04/27 03:01:27;;;;;;;20.33;16.95;;;;;;;;;;6098056;23;20057;-76
2023/04/27 03:03:53;;;;;;;24.52;18.08;;;;;;;;;;6099992;23;20010;-77
2023/04/27 03:06:19;;;;;;;36.47;20.35;;;;;;;;;;6098817;23;20036;-75
2023/04/27 03:08:45;;;;;;;33.33;23.17;;;;;;;;;;6098235;23;20367;-76
2023/04/27 03:11:14;;;;;;;26.73;17.95;;;;;;;;;;6076433;23;20099;-77
2023/04/27 03:13:40;;;;;;;25.23;16.80;;;;;;;;;;6112576;23;20024;-77
2023/04/27 03:16:10;;;;;;;26.42;15.82;;;;;;;;;;6107899;23;20033;-74
2023/04/27 03:18:36;;;;;;;19.60;14.80;;;;;;;;;;6127892;23;20010;-74
2023/04/27 03:21:12;;;;;;;18.90;13.75;;;;;;;;;;6102712;23;20021;-76
2023/04/27 03:23:39;;;;;;;23.88;14.10;;;;;;;;;;6100442;23;20097;-76
2023/04/27 03:26:09;;;;;;;19.67;17.00;;;;;;;;;;6125997;23;20060;-76
2023/04/27 03:28:35;;;;;;;20.80;16.20;;;;;;;;;;6125955;23;20022;-76
2023/04/27 03:31:05;;;;;;;20.75;18.13;;;;;;;;;;6075720;23;20018;-77
2023/04/27 03:33:31;;;;;;;18.35;16.17;;;;;;;;;;6125685;23;20092;-76
2023/04/27 03:35:57;;;;;;;22.20;13.80;;;;;;;;;;6124587;23;20458;-77
2023/04/27 03:38:26;;;;;;;17.70;14.35;;;;;;;;;;6122516;23;20020;-77
2023/04/27 03:40:52;;;;;;;15.90;14.10;;;;;;;;;;6124016;23;20088;-76
2023/04/27 03:43:18;;;;;;;16.95;15.15;;;;;;;;;;6075032;23;20101;-77
2023/04/27 03:45:45;;;;;;;16.55;14.43;;;;;;;;;;6098769;23;20546;-77
2023/04/27 03:48:11;;;;;;;16.00;14.13;;;;;;;;;;6098895;23;20282;-77
2023/04/27 03:50:38;;;;;;;15.13;13.52;;;;;;;;;;6099323;23;20014;-74
2023/04/27 03:53:05;;;;;;;18.15;13.60;;;;;;;;;;6099046;23;20018;-76
2023/04/27 03:55:31;;;;;;;19.75;13.00;;;;;;;;;;6124631;23;20362;-74
2023/04/27 03:57:57;;;;;;;18.23;12.73;;;;;;;;;;6098843;23;20014;-77
2023/04/27 04:00:23;;;;;;;19.38;12.45;;;;;;;;;;6124143;23;20052;-76
2023/04/27 04:02:51;;;;;;;18.20;13.23;;;;;;;;;;6098688;23;20017;-77
2023/04/27 04:05:17;;;;;;;15.93;11.82;;;;;;;;;;6098582;23;20238;-76
2023/04/27 04:07:43;;;;;;;15.43;11.15;;;;;;;;;;6125253;23;20040;-76
2023/04/27 04:10:11;;;;;;;14.13;12.63;;;;;;;;;;6098912;23;20040;-76
2023/04/27 04:12:37;;;;;;;16.17;12.90;;;;;;;;;;6099339;23;20017;-75
2023/04/27 04:15:03;;;;;;;17.23;13.40;;;;;;;;;;6076515;23;20069;-76
2023/04/27 04:17:32;;;;;;;15.25;13.15;;;;;;;;;;6099232;23;20467;-76
2023/04/27 04:19:59;;;;;;;22.55;16.77;;;;;;;;;;6125258;23;20022;-77
2023/04/27 04:22:25;;;;;;;28.40;16.77;;;;;;;;;;6099262;23;20354;-79
2023/04/27 04:24:52;;;;;;;21.92;15.50;;;;;;;;;;6098293;23;20101;-77
2023/04/27 04:27:18;;;;;;;17.73;14.30;;;;;;;;;;6098175;23;20058;-78
2023/04/27 04:29:44;;;;;;;22.00;15.52;;;;;;;;;;6124154;23;20018;-77
2023/04/27 04:32:11;;;;;;;26.73;16.77;;;;;;;;;;6098141;23;20044;-77
2023/04/27 04:34:37;;;;;;;35.13;20.98;;;;;;;;;;6123198;23;20022;-76
2023/04/27 04:37:04;;;;;;;23.25;18.38;;;;;;;;;;6074090;23;20010;-77
2023/04/27 04:39:30;;;;;;;22.33;17.77;;;;;;;;;;6097269;23;20039;-77
2023/04/27 04:41:57;;;;;;;18.95;16.95;;;;;;;;;;6066778;23;20014;-77
2023/04/27 04:44:26;;;;;;;25.55;17.58;;;;;;;;;;6069197;23;20018;-76
2023/04/27 04:46:52;;;;;;;22.58;16.02;;;;;;;;;;6071995;23;20407;-77
2023/04/27 04:49:18;;;;;;;18.33;14.45;;;;;;;;;;6120697;23;20129;-77
2023/04/27 04:51:44;;;;;;;19.60;14.32;;;;;;;;;;6072017;23;20020;-76
2023/04/27 04:54:11;;;;;;;16.15;13.18;;;;;;;;;;6095534;23;20128;-76
2023/04/27 04:56:37;;;;;;;14.27;12.88;;;;;;;;;;6073362;23;20013;-76
2023/04/27 04:59:03;;;;;;;21.10;15.25;;;;;;;;;;6073389;23;20020;-76
2023/04/27 05:01:31;;;;;;;18.10;13.77;;;;;;;;;;6095765;23;20134;-76
2023/04/27 05:03:57;;;;;;;14.20;12.27;;;;;;;;;;6123284;23;20014;-76
2023/04/27 05:06:23;;;;;;;14.70;13.05;;;;;;;;;;6122231;23;20033;-76
2023/04/27 05:08:49;;;;;;;15.57;12.80;;;;;;;;;;6123818;23;20033;-76
2023/04/27 05:11:15;;;;;;;17.40;12.43;;;;;;;;;;6122384;23;20014;-76
2023/04/27 05:13:41;;;;;;;19.77;11.90;;;;;;;;;;6095639;23;20104;-77
2023/04/27 05:16:07;;;;;;;13.73;11.23;;;;;;;;;;6123144;23;20010;-77
2023/04/27 05:18:33;;;;;;;15.48;11.38;;;;;;;;;;6096989;23;20014;-76
2023/04/27 05:20:59;;;;;;;13.60;11.27;;;;;;;;;;6124022;23;20359;-76
2023/04/27 05:23:25;;;;;;;12.02;10.75;;;;;;;;;;6096646;23;20077;-76
2023/04/27 05:25:51;;;;;;;20.40;11.50;;;;;;;;;;6094125;23;20092;-75
2023/04/27 05:28:17;;;;;;;21.52;10.20;;;;;;;;;;6049117;23;20025;-77
2023/04/27 05:30:43;;;;;;;12.45;9.93;;;;;;;;;;6123009;23;20094;-75
2023/04/27 05:33:09;;;;;;;14.50;9.63;;;;;;;;;;6073258;23;20037;-76
2023/04/27 05:35:35;;;;;;;12.98;9.05;;;;;;;;;;6122554;23;20242;-76
2023/04/27 05:38:01;;;;;;;10.68;9.57;;;;;;;;;;6123022;23;20296;-76
2023/04/27 05:40:27;;;;;;;13.93;8.52;;;;;;;;;;6096594;23;20429;-76
2023/04/27 05:42:52;;;;;;;10.10;9.10;;;;;;;;;;6095250;23;20018;-76
2023/04/27 05:45:19;;;;;;;10.32;8.55;;;;;;;;;;6122493;23;20017;-75
2023/04/27 05:47:45;;;;;;;8.85;7.85;;;;;;;;;;6122547;23;20031;-73
2023/04/27 05:50:11;;;;;;;8.52;7.70;;;;;;;;;;6096954;23;20101;-76
2023/04/27 05:52:37;;;;;;;8.57;7.88;;;;;;;;;;6096803;23;20049;-76
2023/04/27 05:55:04;;;;;;;9.10;8.20;;;;;;;;;;6123243;23;20010;-76
2023/04/27 05:57:30;;;;;;;9.57;8.23;;;;;;;;;;6122870;23;20017;-74
2023/04/27 05:59:56;;;;;;;10.70;7.68;;;;;;;;;;6096969;23;20010;-73
2023/04/27 06:02:22;;;;;;;10.77;7.78;;;;;;;;;;6096581;23;20348;-75
2023/04/27 06:04:48;;;;;;;8.15;7.35;;;;;;;;;;6094715;23;20014;-73
2023/04/27 06:07:14;;;;;;;8.85;6.57;;;;;;;;;;6122032;23;20022;-75
2023/04/27 06:09:41;;;;;;;7.22;5.82;;;;;;;;;;6122565;23;20052;-75
2023/04/27 06:12:07;;;;;;;11.68;6.10;;;;;;;;;;6096469;23;20009;-74
2023/04/27 06:14:34;;;;;;;11.75;6.28;;;;;;;;;;6123714;23;20093;-75
2023/04/27 06:17:00;;;;;;;8.05;5.50;;;;;;;;;;6097424;23;20048;-75
2023/04/27 06:19:27;;;;;;;7.35;5.15;;;;;;;;;;6093914;23;20451;-73
2023/04/27 06:21:53;;;;;;;5.88;5.10;;;;;;;;;;6121357;23;20052;-74
2023/04/27 06:24:20;;;;;;;5.22;4.82;;;;;;;;;;6094118;23;20018;-75
2023/04/27 06:26:46;;;;;;;8.85;4.57;;;;;;;;;;6120886;23;20017;-74
2023/04/27 06:29:12;;;;;;;6.10;5.03;;;;;;;;;;6094902;23;20018;-74
2023/04/27 06:31:38;;;;;;;7.93;5.30;;;;;;;;;;6094312;23;20009;-74
2023/04/27 06:34:05;;;;;;;6.13;5.40;;;;;;;;;;6121506;23;20033;-74
2023/04/27 06:36:31;;;;;;;8.15;5.18;;;;;;;;;;6094742;23;20017;-75
2023/04/27 06:38:58;;;;;;;5.75;5.03;;;;;;;;;;6097287;23;20120;-74
2023/04/27 06:41:24;;;;;;;8.57;4.53;;;;;;;;;;6099108;23;20497;-74
2023/04/27 06:43:50;;;;;;;11.38;5.05;;;;;;;;;;6125415;23;20014;-75
2023/04/27 06:46:16;;;;;;;6.60;4.55;;;;;;;;;;6134259;23;20017;-74
2023/04/27 06:48:44;;;;;;;4.93;4.55;;;;;;;;;;6086068;23;20116;-74
2023/04/27 06:51:10;;;;;;;5.07;4.68;;;;;;;;;;6100415;23;20014;-74
2023/04/27 06:53:36;;;;;;;5.00;4.47;;;;;;;;;;6122818;23;20024;-74
2023/04/27 06:56:03;;;;;;;5.60;5.10;;;;;;;;;;6123617;23;20351;-75
2023/04/27 06:58:29;;;;;;;5.10;4.60;;;;;;;;;;6122448;23;20114;-73
2023/04/27 07:00:55;;;;;;;8.65;4.53;;;;;;;;;;6122530;23;20364;-74
2023/04/27 07:03:21;;;;;;;5.22;4.32;;;;;;;;;;6096976;23;20099;-75
2023/04/27 07:05:47;;;;;;;4.88;4.47;;;;;;;;;;6072840;23;20041;-74
2023/04/27 07:08:13;;;;;;;4.30;4.00;;;;;;;;;;6096795;23;20050;-74
2023/04/27 07:10:40;;;;;;;4.70;3.45;;;;;;;;;;6122542;23;20018;-73
2023/04/27 07:13:06;;;;;;;4.43;3.05;;;;;;;;;;6123102;23;20417;-73
2023/04/27 07:15:32;;;;;;;3.55;2.60;;;;;;;;;;6072059;23;20021;-73
2023/04/27 07:17:58;;;;;;;7.20;2.88;;;;;;;;;;6122888;23;20010;-73
2023/04/27 07:20:27;;;;;;;3.22;2.78;;;;;;;;;;6122449;23;20021;-72
2023/04/27 07:22:53;;;;;;;5.63;3.67;;;;;;;;;;6122795;23;20009;-72
2023/04/27 07:25:19;;;;;;;3.53;3.33;;;;;;;;;;6123215;23;20097;-73
2023/04/27 07:27:49;;;;;;;4.18;3.13;;;;;;;;;;6122544;23;20013;-73
2023/04/27 07:30:16;;;;;;;3.65;3.35;;;;;;;;;;6096543;23;20018;-76
2023/04/27 07:32:53;;;;;;;3.70;3.40;;;;;;;;;;6096744;23;20367;-73
2023/04/27 07:35:19;;;;;;;4.20;3.80;;;;;;;;;;6096463;23;20052;-75
2023/04/27 07:37:45;;;;;;;5.72;4.25;;;;;;;;;;6096927;23;20018;-74
2023/04/27 07:40:15;;;;;;;4.30;3.35;;;;;;;;;;6096631;23;20014;-75
2023/04/27 07:42:41;;;;;;;5.70;3.40;;;;;;;;;;6122467;23;20018;-74
2023/04/27 07:45:08;;;;;;;3.47;3.28;;;;;;;;;;6122468;23;20014;-72
2023/04/27 07:47:34;;;;;;;3.80;3.45;;;;;;;;;;6096165;23;20017;-72
2023/04/27 07:50:00;;;;;;;3.60;3.30;;;;;;;;;;6122425;23;20022;-72
2023/04/27 07:52:27;;;;;;;4.13;3.50;;;;;;;;;;6122261;23;20033;-72
2023/04/27 07:54:53;;;;;;;3.72;3.35;;;;;;;;;;6122591;23;20022;-74
2023/04/27 07:57:25;;;;;;;4.72;3.92;;;;;;;;;;6098274;23;20017;-75
2023/04/27 07:59:51;;;;;;;6.13;3.90;;;;;;;;;;6122375;23;20323;-73
2023/04/27 08:02:17;;;;;;;5.22;3.80;;;;;;;;;;6122650;23;20009;-75
2023/04/27 08:04:43;;;;;;;4.55;3.47;;;;;;;;;;6096166;23;20016;-74
2023/04/27 08:07:09;;;;;;;4.63;3.60;;;;;;;;;;6096887;23;20021;-76
2023/04/27 08:09:35;;;;;;;4.20;3.72;;;;;;;;;;6072151;23;20038;-73
2023/04/27 08:12:01;;;;;;;4.25;3.30;;;;;;;;;;6122283;23;20014;-74
2023/04/27 08:14:27;;;;;;;4.13;3.72;;;;;;;;;;6122029;23;20014;-75
2023/04/27 08:16:53;;;;;;;4.75;4.20;;;;;;;;;;6121995;23;20010;-73
2023/04/27 08:19:19;;;;;;;5.68;4.43;;;;;;;;;;6122705;23;20098;-74
2023/04/27 08:21:45;;;;;;;4.93;4.47;;;;;;;;;;6096864;23;20010;-75
2023/04/27 08:24:11;;;;;;;4.40;4.00;;;;;;;;;;6123059;23;20024;-76
2023/04/27 08:26:39;;;;;;;10.73;4.72;;;;;;;;;;6096182;23;20097;-77
2023/04/27 08:29:05;;;;;;;4.80;4.40;;;;;;;;;;6124506;23;20036;-77
2023/04/27 08:31:31;;;;;;;6.13;4.22;;;;;;;;;;6098212;23;20017;-76
2023/04/27 08:33:57;;;;;;;4.95;4.60;;;;;;;;;;6098102;23;20379;-75
2023/04/27 08:36:23;;;;;;;4.45;4.10;;;;;;;;;;6097895;23;20017;-77
2023/04/27 08:38:50;;;;;;;4.68;4.28;;;;;;;;;;6124274;23;20022;-74
2023/04/27 08:41:22;;;;;;;5.85;4.70;;;;;;;;;;6098673;23;20021;-75
2023/04/27 08:43:48;;;;;;;5.05;4.18;;;;;;;;;;6124920;23;20470;-76
2023/04/27 08:46:21;;;;;;;13.32;4.88;;;;;;;;;;6124572;23;20014;-76
2023/04/27 08:48:54;;;;;;;5.03;4.50;;;;;;;;;;6124736;23;20096;-76
2023/04/27 08:51:20;;;;;;;6.45;4.70;;;;;;;;;;6127471;23;20014;-76
2023/04/27 08:53:48;;;;;;;6.18;4.70;;;;;;;;;;6108120;23;20029;-75
2023/04/27 08:56:14;;;;;;;6.30;3.90;;;;;;;;;;6131790;23;20014;-77
2023/04/27 08:58:40;;;;;;;6.13;4.35;;;;;;;;;;6102802;23;20033;-76
2023/04/27 09:01:06;;;;;;;6.30;4.80;;;;;;;;;;6139992;23;20014;-76
2023/04/27 09:03:35;;;;;;;7.15;4.47;;;;;;;;;;6071655;23;20022;-77
2023/04/27 09:06:04;;;;;;;7.22;5.07;;;;;;;;;;6142058;23;20096;-76
2023/04/27 09:08:59;;;;;;;7.07;4.60;;;;;;;;;;6117099;23;20107;-75
2023/04/27 09:11:32;;;;;;;4.88;4.35;;;;;;;;;;6107795;23;20018;-76
2023/04/27 09:13:59;;;;;;;9.30;4.22;;;;;;;;;;6126274;23;20109;-76
2023/04/27 09:16:27;;;;;;;4.95;4.10;;;;;;;;;;6124154;23;20093;-77
2023/04/27 09:18:53;;;;;;;5.82;4.10;;;;;;;;;;6074868;23;20013;-76
2023/04/27 09:21:26;;;;;;;12.18;4.78;;;;;;;;;;6124029;23;20025;-76
2023/04/27 09:23:57;;;;;;;5.90;3.80;;;;;;;;;;6075524;23;20078;-76
2023/04/27 09:26:25;;;;;;;8.00;4.25;;;;;;;;;;6098325;23;20010;-76
2023/04/27 09:28:52;;;;;;;4.40;4.00;;;;;;;;;;6097741;23;20021;-76
2023/04/27 09:31:18;;;;;;;4.53;3.88;;;;;;;;;;6123236;23;20021;-76
2023/04/27 09:33:44;;;;;;;7.95;4.57;;;;;;;;;;6073282;23;20101;-76
2023/04/27 09:36:10;;;;;;;5.88;4.60;;;;;;;;;;6097441;23;20491;-75
2023/04/27 09:38:37;;;;;;;7.13;4.05;;;;;;;;;;6097470;23;20014;-75
2023/04/27 09:41:03;;;;;;;4.72;4.38;;;;;;;;;;6123697;23;20406;-75
2023/04/27 09:43:30;;;;;;;5.80;3.95;;;;;;;;;;6123545;23;20515;-76
2023/04/27 09:45:56;;;;;;;5.70;4.00;;;;;;;;;;6123393;23;20455;-74
2023/04/27 09:48:22;;;;;;;5.55;4.15;;;;;;;;;;6123784;23;20025;-76
2023/04/27 09:50:49;;;;;;;3.65;3.45;;;;;;;;;;6073321;23;20443;-77
2023/04/27 09:53:19;;;;;;;6.90;4.25;;;;;;;;;;6097707;23;20018;-75
2023/04/27 09:55:48;;;;;;;5.03;4.63;;;;;;;;;;6123377;23;20328;-76
2023/04/27 09:58:29;;;;;;;7.32;4.60;;;;;;;;;;6097728;23;20367;-76
2023/04/27 10:00:59;;;;;;;8.05;4.50;;;;;;;;;;6098230;23;20022;-75
2023/04/27 10:03:37;;;;;;;5.97;5.13;;;;;;;;;;6097797;23;20093;-76
2023/04/27 10:06:06;;;;;;;5.03;4.53;;;;;;;;;;6123507;23;20419;-75
2023/04/27 10:08:34;;;;;;;6.38;5.05;;;;;;;;;;6097648;23;20104;-76
2023/04/27 10:11:00;;;;;;;9.07;5.60;;;;;;;;;;6123692;23;20018;-75
2023/04/27 10:13:26;;;;;;;5.25;3.97;;;;;;;;;;6123924;23;20137;-76
2023/04/27 10:15:52;;;;;;;5.80;4.38;;;;;;;;;;6097805;23;20018;-74
2023/04/27 10:18:44;;;;;;;6.70;3.28;;;;;;;;;;6098497;23;20013;-76
2023/04/27 10:21:10;;;;;;;3.70;3.45;;;;;;;;;;6137507;23;20022;-75
2023/04/27 10:23:47;;;;;;;12.65;3.72;;;;;;;;;;6143445;23;20028;-76
2023/04/27 10:26:20;;;;;;;4.32;3.70;;;;;;;;;;6091767;23;20010;-75
2023/04/27 10:28:54;;;;;;;4.20;3.90;;;;;;;;;;6131339;23;20022;-75
2023/04/27 10:31:26;;;;;;;8.93;3.97;;;;;;;;;;6134656;23;20061;-76
2023/04/27 10:33:52;;;;;;;3.92;3.50;;;;;;;;;;6134297;23;20101;-75
2023/04/27 10:36:18;;;;;;;3.53;3.22;;;;;;;;;;6123934;23;20466;-75
2023/04/27 10:38:43;;;;;;;3.67;3.42;;;;;;;;;;6097159;23;20013;-76
2023/04/27 10:41:13;;;;;;;10.85;3.97;;;;;;;;;;6123325;23;20506;-74
2023/04/27 10:43:40;;;;;;;4.43;4.03;;;;;;;;;;6123322;23;20018;-75
2023/04/27 10:46:12;;;;;;;7.10;3.72;;;;;;;;;;6123898;23;20010;-76
2023/04/27 10:48:39;;;;;;;4.60;4.10;;;;;;;;;;6097440;23;20227;-76
2023/04/27 10:51:05;;;;;;;14.90;4.95;;;;;;;;;;6136557;23;20010;-86
2023/04/27 10:53:35;;;;;;;4.43;4.03;;;;;;;;;;6113866;23;20351;-84
2023/04/27 10:56:01;;;;;;;6.00;4.83;;;;;;;;;;6142264;23;20062;-85
2023/04/27 10:58:27;;;;;;;5.57;3.95;;;;;;;;;;6142720;23;20253;-85
2023/04/27 11:00:53;;;;;;;5.35;4.85;;;;;;;;;;6115674;23;20058;-84
2023/04/27 11:03:21;;;;;;;4.65;4.35;;;;;;;;;;6107560;23;20518;-83
2023/04/27 11:05:47;;;;;;;8.68;4.47;;;;;;;;;;6132210;23;20308;-83
2023/04/27 11:08:14;;;;;;;7.63;5.30;;;;;;;;;;6138872;23;20033;-86
2023/04/27 11:10:48;;;;;;;4.13;3.80;;;;;;;;;;6114000;23;20005;-84
2023/04/27 11:13:15;;;;;;;4.32;4.03;;;;;;;;;;6100601;23;20018;-82
2023/04/27 11:15:42;;;;;;;4.72;4.40;;;;;;;;;;6049838;23;20037;-83
2023/04/27 11:18:09;;;;;;;5.70;4.90;;;;;;;;;;6103520;23;20021;-83
2023/04/27 11:20:35;;;;;;;6.50;4.72;;;;;;;;;;6108947;23;20013;-84
2023/04/27 11:23:01;;;;;;;4.68;4.28;;;;;;;;;;6113961;23;20029;-84
2023/04/27 11:25:27;;;;;;;6.35;4.60;;;;;;;;;;6092140;23;20465;-84
2023/04/27 11:27:53;;;;;;;4.50;4.20;;;;;;;;;;6111102;23;20104;-84
2023/04/27 11:30:20;;;;;;;4.28;3.97;;;;;;;;;;6106928;23;20018;-83
2023/04/27 11:32:46;;;;;;;4.90;3.97;;;;;;;;;;6131290;23;20010;-83
2023/04/27 11:35:13;;;;;;;4.70;4.30;;;;;;;;;;6130977;23;20424;-83
2023/04/27 11:37:38;;;;;;;3.45;3.15;;;;;;;;;;6083134;23;20010;-84
2023/04/27 11:40:05;;;;;;;3.85;3.60;;;;;;;;;;6137856;23;20013;-84
2023/04/27 11:42:31;;;;;;;4.13;3.80;;;;;;;;;;6136102;23;20010;-82
2023/04/27 11:45:01;;;;;;;6.47;4.00;;;;;;;;;;6108836;23;20066;-83
2023/04/27 11:47:34;;;;;;;4.40;4.10;;;;;;;;;;6135549;23;20044;-83
2023/04/27 11:50:01;;;;;;;4.00;3.78;;;;;;;;;;6136898;23;20038;-82
2023/04/27 11:52:34;;;;;;;5.18;4.70;;;;;;;;;;6128509;23;20010;-82
2023/04/27 11:55:07;;;;;;;4.97;4.50;;;;;;;;;;6101417;23;20025;-81
2023/04/27 11:57:34;;;;;;;5.20;4.70;;;;;;;;;;6078322;23;20014;-83
2023/04/27 12:00:01;;;;;;;6.20;4.22;;;;;;;;;;6100910;23;20367;-82
2023/04/27 12:02:32;;;;;;;4.30;3.90;;;;;;;;;;6101259;23;20014;-82
2023/04/27 12:05:00;;;;;;;4.50;4.10;;;;;;;;;;6101522;23;20032;-81
2023/04/27 12:07:26;;;;;;;4.80;4.43;;;;;;;;;;6102075;23;20014;-82
2023/04/27 12:09:52;;;;;;;6.55;3.92;;;;;;;;;;6126932;23;20096;-81
2023/04/27 12:12:21;;;;;;;6.03;3.92;;;;;;;;;;6134485;23;20111;-81
2023/04/27 12:14:47;;;;;;;5.97;4.03;;;;;;;;;;6116099;23;20010;-81
2023/04/27 12:17:16;;;;;;;4.78;3.55;;;;;;;;;;6089392;23;20041;-82
2023/04/27 12:19:43;;;;;;;3.38;3.22;;;;;;;;;;6124956;23;20014;-80
2023/04/27 12:22:10;;;;;;;4.75;3.10;;;;;;;;;;6051070;23;20100;-81
2023/04/27 12:24:36;;;;;;;4.18;3.60;;;;;;;;;;6074817;23;20006;-79
2023/04/27 12:27:03;;;;;;;3.33;3.13;;;;;;;;;;6131426;23;20021;-86
2023/04/27 12:29:30;;;;;;;3.58;3.28;;;;;;;;;;6150223;23;20021;-86
2023/04/27 12:31:57;;;;;;;3.90;3.55;;;;;;;;;;6127107;23;20032;-83
2023/04/27 12:34:24;;;;;;;3.88;3.65;;;;;;;;;;6128102;23;20026;-73
2023/04/27 12:36:50;;;;;;;3.38;3.08;;;;;;;;;;6124052;23;20018;-74
2023/04/27 12:39:17;;;;;;;4.40;3.50;;;;;;;;;;6099783;23;20024;-74
2023/04/27 12:41:43;;;;;;;8.75;3.53;;;;;;;;;;6123895;23;20014;-72
2023/04/27 12:44:09;;;;;;;3.47;3.17;;;;;;;;;;6098157;23;20127;-73
2023/04/27 12:46:36;;;;;;;4.93;4.50;;;;;;;;;;6098438;23;20066;-73
2023/04/27 12:49:02;;;;;;;3.55;3.25;;;;;;;;;;6123332;23;20033;-73
2023/04/27 12:51:28;;;;;;;4.63;3.30;;;;;;;;;;6098078;23;20017;-73
2023/04/27 12:53:54;;;;;;;6.57;3.85;;;;;;;;;;6097969;23;20093;-74
2023/04/27 12:56:20;;;;;;;3.60;3.30;;;;;;;;;;6098153;23;20085;-73
2023/04/27 12:58:47;;;;;;;3.53;3.30;;;;;;;;;;6123754;23;20014;-75
2023/04/27 13:01:16;;;;;;;6.10;3.53;;;;;;;;;;6123903;23;20033;-75
2023/04/27 13:03:42;;;;;;;4.38;2.72;;;;;;;;;;6123730;23;20087;-74
2023/04/27 13:06:08;;;;;;;6.82;3.10;;;;;;;;;;6097986;23;20096;-75
2023/04/27 13:08:35;;;;;;;4.20;3.33;;;;;;;;;;6124139;23;20510;-75
2023/04/27 13:11:01;;;;;;;4.30;3.30;;;;;;;;;;6074008;23;20037;-74
2023/04/27 13:13:26;;;;;;;3.38;3.17;;;;;;;;;;6124047;23;20017;-75
2023/04/27 13:15:53;;;;;;;3.30;3.00;;;;;;;;;;6098109;23;20017;-75
2023/04/27 13:18:19;;;;;;;3.20;3.00;;;;;;;;;;6123699;23;20017;-75
2023/04/27 13:20:46;;;;;;;5.43;3.30;;;;;;;;;;6097832;23;20085;-75
2023/04/27 13:23:12;;;;;;;3.20;3.00;;;;;;;;;;6098171;23;20046;-75
2023/04/27 13:25:38;;;;;;;2.97;2.85;;;;;;;;;;6098062;23;20021;-74
2023/04/27 13:28:04;;;;;;;5.82;3.85;;;;;;;;;;6098113;23;20435;-75
2023/04/27 13:30:31;;;;;;;6.40;3.50;;;;;;;;;;6098708;23;20037;-75
2023/04/27 13:32:56;;;;;;;3.88;3.50;;;;;;;;;;6125310;23;20029;-74
2023/04/27 13:35:23;;;;;;;4.22;3.50;;;;;;;;;;6125130;23;20013;-74
2023/04/27 13:37:50;;;;;;;3.80;3.40;;;;;;;;;;6123502;23;20020;-75
2023/04/27 13:40:16;;;;;;;3.65;3.35;;;;;;;;;;6124290;23;20431;-72
2023/04/27 13:42:42;;;;;;;2.80;2.60;;;;;;;;;;6122969;23;20041;-76
2023/04/27 13:45:08;;;;;;;4.00;3.63;;;;;;;;;;6097977;23;20014;-75
2023/04/27 13:47:38;;;;;;;5.50;3.45;;;;;;;;;;6097220;23;20022;-75
2023/04/27 13:50:04;;;;;;;4.03;3.72;;;;;;;;;;6097082;23;20026;-75
2023/04/27 13:52:30;;;;;;;3.78;3.47;;;;;;;;;;6123401;23;20354;-74
2023/04/27 13:54:57;;;;;;;6.65;3.72;;;;;;;;;;6123336;23;20020;-76
2023/04/27 13:57:23;;;;;;;3.80;3.50;;;;;;;;;;6123850;23;20021;-75
2023/04/27 13:59:49;;;;;;;3.58;3.38;;;;;;;;;;6097182;23;20359;-75
2023/04/27 14:02:15;;;;;;;5.18;3.45;;;;;;;;;;6123522;23;20017;-75
2023/04/27 14:04:41;;;;;;;4.40;3.60;;;;;;;;;;6097574;23;20076;-74
2023/04/27 14:07:07;;;;;;;3.80;3.50;;;;;;;;;;6122961;23;20010;-75
2023/04/27 14:09:33;;;;;;;3.90;3.60;;;;;;;;;;6097313;23;20021;-75
2023/04/27 14:11:59;;;;;;;3.53;3.33;;;;;;;;;;6072903;23;20242;-75
2023/04/27 14:14:25;;;;;;;3.33;3.13;;;;;;;;;;6123319;23;20021;-75
2023/04/27 14:16:53;;;;;;;3.83;3.40;;;;;;;;;;6122931;23;20029;-74
2023/04/27 14:19:19;;;;;;;4.20;3.40;;;;;;;;;;6123764;23;20017;-74
2023/04/27 14:21:46;;;;;;;3.97;3.58;;;;;;;;;;6123277;23;20014;-74
2023/04/27 14:24:12;;;;;;;5.38;3.63;;;;;;;;;;6096885;23;20024;-75
2023/04/27 14:26:42;;;;;;;3.90;3.55;;;;;;;;;;6122796;23;20092;-75
2023/04/27 14:29:09;;;;;;;3.65;3.40;;;;;;;;;;6075292;23;20021;-74
2023/04/27 14:31:35;;;;;;;4.53;3.10;;;;;;;;;;6123170;23;20090;-74